sensor_id;sensor_type;location;lat;lon;timestamp;temperature;humidity
40253;DHT22;25972;51.854;4.534;2023-02-27T00:00:08;2.80;99.90
40253;DHT22;25972;51.854;4.534;2023-02-27T00:02:46;2.90;99.90
40253;DHT22;25972;51.854;4.534;2023-02-27T00:05:13;2.90;99.90
40253;DHT22;25972;51.854;4.534;2023-02-27T00:07:39;2.90;99.90
40253;DHT22;25972;51.854;4.534;2023-02-27T00:10:06;2.90;99.90
40253;DHT22;25972;51.854;4.534;2023-02-27T00:12:33;2.90;99.90
40253;DHT22;25972;51.854;4.534;2023-02-27T00:15:14;2.90;99.90
40253;DHT22;25972;51.854;4.534;2023-02-27T00:17:40;2.90;99.90
40253;DHT22;25972;51.854;4.534;2023-02-27T00:20:08;2.90;99.90
40253;DHT22;25972;51.854;4.534;2023-02-27T00:22:38;2.90;99.90
40253;DHT22;25972;51.854;4.534;2023-02-27T00:25:05;2.90;99.90
40253;DHT22;25972;51.854;4.534;2023-02-27T00:27:32;2.90;99.90
40253;DHT22;25972;51.854;4.534;2023-02-27T00:29:58;2.90;99.90
40253;DHT22;25972;51.854;4.534;2023-02-27T00:34:59;2.80;99.90
40253;DHT22;25972;51.854;4.534;2023-02-27T00:37:25;2.80;99.90
40253;DHT22;25972;51.854;4.534;2023-02-27T00:39:52;2.80;99.90
40253;DHT22;25972;51.854;4.534;2023-02-27T00:42:17;2.80;99.90
40253;DHT22;25972;51.854;4.534;2023-02-27T00:44:45;2.80;99.90
40253;DHT22;25972;51.854;4.534;2023-02-27T00:47:11;2.80;99.90
40253;DHT22;25972;51.854;4.534;2023-02-27T00:49:39;2.80;99.90
40253;DHT22;25972;51.854;4.534;2023-02-27T00:52:05;2.70;99.90
40253;DHT22;25972;51.854;4.534;2023-02-27T00:54:31;2.70;99.90
40253;DHT22;25972;51.854;4.534;2023-02-27T00:56:56;2.70;99.90
40253;DHT22;25972;51.854;4.534;2023-02-27T00:59:22;2.70;99.90
40253;DHT22;25972;51.854;4.534;2023-02-27T01:01:48;2.70;99.90
40253;DHT22;25972;51.854;4.534;2023-02-27T01:04:14;2.70;99.90
40253;DHT22;25972;51.854;4.534;2023-02-27T01:06:40;2.60;99.90
40253;DHT22;25972;51.854;4.534;2023-02-27T01:09:06;2.60;99.90
40253;DHT22;25972;51.854;4.534;2023-02-27T01:11:32;2.60;99.90
40253;DHT22;25972;51.854;4.534;2023-02-27T01:13:59;2.60;99.90
40253;DHT22;25972;51.854;4.534;2023-02-27T01:16:24;2.60;99.90
40253;DHT22;25972;51.854;4.534;2023-02-27T01:18:50;2.60;99.90
40253;DHT22;25972;51.854;4.534;2023-02-27T01:21:16;2.60;99.90
40253;DHT22;25972;51.854;4.534;2023-02-27T01:23:44;2.60;99.90
40253;DHT22;25972;51.854;4.534;2023-02-27T01:26:09;2.60;99.90
40253;DHT22;25972;51.854;4.534;2023-02-27T01:28:35;2.60;99.90
40253;DHT22;25972;51.854;4.534;2023-02-27T01:31:01;2.50;99.90
40253;DHT22;25972;51.854;4.534;2023-02-27T01:33:27;2.50;99.90
40253;DHT22;25972;51.854;4.534;2023-02-27T01:35:53;2.60;99.90
40253;DHT22;25972;51.854;4.534;2023-02-27T01:38:19;2.50;99.90
40253;DHT22;25972;51.854;4.534;2023-02-27T01:40:45;2.50;99.90
40253;DHT22;25972;51.854;4.534;2023-02-27T01:43:18;2.50;99.90
40253;DHT22;25972;51.854;4.534;2023-02-27T01:45:45;2.40;99.90
40253;DHT22;25972;51.854;4.534;2023-02-27T01:48:25;2.40;99.90
40253;DHT22;25972;51.854;4.534;2023-02-27T01:51:04;2.40;99.90
40253;DHT22;25972;51.854;4.534;2023-02-27T01:53:33;2.40;99.90
40253;DHT22;25972;51.854;4.534;2023-02-27T01:56:12;2.40;99.90
40253;DHT22;25972;51.854;4.534;2023-02-27T01:58:39;2.30;99.90
40253;DHT22;25972;51.854;4.534;2023-02-27T02:01:06;2.30;99.90
40253;DHT22;25972;51.854;4.534;2023-02-27T02:06:11;2.20;99.90
40253;DHT22;25972;51.854;4.534;2023-02-27T02:08:45;2.20;99.90
40253;DHT22;25972;51.854;4.534;2023-02-27T02:11:13;2.20;99.90
40253;DHT22;25972;51.854;4.534;2023-02-27T02:13:40;2.10;99.90
40253;DHT22;25972;51.854;4.534;2023-02-27T02:33:09;1.80;99.90
40253;DHT22;25972;51.854;4.534;2023-02-27T02:44:01;1.70;99.90
40253;DHT22;25972;51.854;4.534;2023-02-27T02:49:02;1.60;99.90
40253;DHT22;25972;51.854;4.534;2023-02-27T02:51:36;1.60;99.90
40253;DHT22;25972;51.854;4.534;2023-02-27T02:54:14;1.50;99.90
40253;DHT22;25972;51.854;4.534;2023-02-27T02:57:08;1.50;99.90
40253;DHT22;25972;51.854;4.534;2023-02-27T03:02:04;1.40;99.90
40253;DHT22;25972;51.854;4.534;2023-02-27T03:04:37;1.40;99.90
40253;DHT22;25972;51.854;4.534;2023-02-27T03:07:16;1.30;99.90
40253;DHT22;25972;51.854;4.534;2023-02-27T03:09:56;1.30;99.90
40253;DHT22;25972;51.854;4.534;2023-02-27T03:12:26;1.30;99.90
40253;DHT22;25972;51.854;4.534;2023-02-27T03:15:10;1.30;99.90
40253;DHT22;25972;51.854;4.534;2023-02-27T03:20:27;1.20;99.90
40253;DHT22;25972;51.854;4.534;2023-02-27T03:22:58;1.20;99.90
40253;DHT22;25972;51.854;4.534;2023-02-27T03:25:27;1.10;99.90
40253;DHT22;25972;51.854;4.534;2023-02-27T03:27:59;1.10;99.90
40253;DHT22;25972;51.854;4.534;2023-02-27T03:30:35;1.10;99.90
40253;DHT22;25972;51.854;4.534;2023-02-27T03:33:16;1.10;99.90
40253;DHT22;25972;51.854;4.534;2023-02-27T03:36:22;1.10;99.90
40253;DHT22;25972;51.854;4.534;2023-02-27T03:38:52;1.00;99.90
40253;DHT22;25972;51.854;4.534;2023-02-27T03:44:30;0.90;99.90
40253;DHT22;25972;51.854;4.534;2023-02-27T03:46:59;0.90;99.90
40253;DHT22;25972;51.854;4.534;2023-02-27T03:49:25;0.90;99.90
40253;DHT22;25972;51.854;4.534;2023-02-27T03:51:51;0.90;99.90
40253;DHT22;25972;51.854;4.534;2023-02-27T03:54:31;0.90;99.90
40253;DHT22;25972;51.854;4.534;2023-02-27T03:57:04;0.90;99.90
40253;DHT22;25972;51.854;4.534;2023-02-27T03:59:31;0.90;99.90
40253;DHT22;25972;51.854;4.534;2023-02-27T04:01:58;0.90;99.90
40253;DHT22;25972;51.854;4.534;2023-02-27T04:04:26;0.90;99.90
40253;DHT22;25972;51.854;4.534;2023-02-27T04:07:37;0.90;99.90
40253;DHT22;25972;51.854;4.534;2023-02-27T04:15:31;0.80;99.90
40253;DHT22;25972;51.854;4.534;2023-02-27T04:18:28;0.70;99.90
40253;DHT22;25972;51.854;4.534;2023-02-27T04:26:32;0.60;99.90
40253;DHT22;25972;51.854;4.534;2023-02-27T04:37:12;0.40;99.90
40253;DHT22;25972;51.854;4.534;2023-02-27T04:39:55;0.40;99.90
40253;DHT22;25972;51.854;4.534;2023-02-27T04:42:29;0.40;99.90
40253;DHT22;25972;51.854;4.534;2023-02-27T04:44:59;0.30;99.90
40253;DHT22;25972;51.854;4.534;2023-02-27T04:47:31;0.30;99.90
40253;DHT22;25972;51.854;4.534;2023-02-27T04:50:14;0.30;99.90
40253;DHT22;25972;51.854;4.534;2023-02-27T04:52:49;0.30;99.90
40253;DHT22;25972;51.854;4.534;2023-02-27T04:55:21;0.30;99.90
40253;DHT22;25972;51.854;4.534;2023-02-27T04:58:10;0.20;99.90
40253;DHT22;25972;51.854;4.534;2023-02-27T05:00:39;0.20;99.90
40253;DHT22;25972;51.854;4.534;2023-02-27T05:03:32;0.20;99.90
40253;DHT22;25972;51.854;4.534;2023-02-27T05:06:00;0.20;99.90
40253;DHT22;25972;51.854;4.534;2023-02-27T05:08:35;0.10;99.90
40253;DHT22;25972;51.854;4.534;2023-02-27T05:13:57;0.00;99.90
40253;DHT22;25972;51.854;4.534;2023-02-27T05:16:32;0.00;99.90
40253;DHT22;25972;51.854;4.534;2023-02-27T05:19:01;-0.10;99.90
40253;DHT22;25972;51.854;4.534;2023-02-27T05:23:56;-0.10;99.90
40253;DHT22;25972;51.854;4.534;2023-02-27T05:40:14;-0.20;99.90
40253;DHT22;25972;51.854;4.534;2023-02-27T05:42:44;-0.30;99.90
40253;DHT22;25972;51.854;4.534;2023-02-27T05:45:16;-0.30;99.90
40253;DHT22;25972;51.854;4.534;2023-02-27T05:47:47;-0.20;99.90
40253;DHT22;25972;51.854;4.534;2023-02-27T05:50:27;-0.30;99.90
40253;DHT22;25972;51.854;4.534;2023-02-27T05:52:56;-0.20;99.90
40253;DHT22;25972;51.854;4.534;2023-02-27T05:55:24;-0.20;99.90
40253;DHT22;25972;51.854;4.534;2023-02-27T05:57:58;-0.20;99.90
40253;DHT22;25972;51.854;4.534;2023-02-27T06:00:33;-0.30;99.90
40253;DHT22;25972;51.854;4.534;2023-02-27T06:03:00;-0.30;99.90
40253;DHT22;25972;51.854;4.534;2023-02-27T06:05:26;-0.30;99.90
40253;DHT22;25972;51.854;4.534;2023-02-27T06:07:52;-0.30;99.90
40253;DHT22;25972;51.854;4.534;2023-02-27T06:10:19;-0.30;99.90
40253;DHT22;25972;51.854;4.534;2023-02-27T06:12:45;-0.30;99.90
40253;DHT22;25972;51.854;4.534;2023-02-27T06:15:11;-0.30;99.90
40253;DHT22;25972;51.854;4.534;2023-02-27T06:17:43;-0.20;99.90
40253;DHT22;25972;51.854;4.534;2023-02-27T06:20:10;-0.30;99.90
40253;DHT22;25972;51.854;4.534;2023-02-27T06:22:36;-0.30;99.90
40253;DHT22;25972;51.854;4.534;2023-02-27T06:25:02;-0.30;99.90
40253;DHT22;25972;51.854;4.534;2023-02-27T06:27:28;-0.30;99.90
40253;DHT22;25972;51.854;4.534;2023-02-27T06:29:57;-0.30;99.90
40253;DHT22;25972;51.854;4.534;2023-02-27T06:32:24;-0.30;99.90
40253;DHT22;25972;51.854;4.534;2023-02-27T06:34:51;-0.30;99.90
40253;DHT22;25972;51.854;4.534;2023-02-27T06:37:17;-0.30;99.90
40253;DHT22;25972;51.854;4.534;2023-02-27T06:39:45;-0.40;99.90
40253;DHT22;25972;51.854;4.534;2023-02-27T06:42:10;-0.40;99.90
40253;DHT22;25972;51.854;4.534;2023-02-27T06:44:36;-0.30;99.90
40253;DHT22;25972;51.854;4.534;2023-02-27T06:47:02;-0.30;99.90
40253;DHT22;25972;51.854;4.534;2023-02-27T06:49:27;-0.30;99.90
40253;DHT22;25972;51.854;4.534;2023-02-27T06:51:53;-0.30;99.90
40253;DHT22;25972;51.854;4.534;2023-02-27T06:54:19;-0.30;99.90
40253;DHT22;25972;51.854;4.534;2023-02-27T06:56:46;-0.20;99.90
40253;DHT22;25972;51.854;4.534;2023-02-27T06:59:12;-0.20;99.90
40253;DHT22;25972;51.854;4.534;2023-02-27T07:01:41;-0.20;99.90
40253;DHT22;25972;51.854;4.534;2023-02-27T07:04:15;-0.20;99.90
40253;DHT22;25972;51.854;4.534;2023-02-27T07:06:41;-0.10;99.90
40253;DHT22;25972;51.854;4.534;2023-02-27T07:09:07;-0.10;99.90
40253;DHT22;25972;51.854;4.534;2023-02-27T07:11:34;0.00;99.90
40253;DHT22;25972;51.854;4.534;2023-02-27T07:14:05;0.00;99.90
40253;DHT22;25972;51.854;4.534;2023-02-27T07:16:31;0.10;99.90
40253;DHT22;25972;51.854;4.534;2023-02-27T07:18:58;0.10;99.90
40253;DHT22;25972;51.854;4.534;2023-02-27T07:21:24;0.10;99.90
40253;DHT22;25972;51.854;4.534;2023-02-27T07:23:50;0.20;99.90
40253;DHT22;25972;51.854;4.534;2023-02-27T07:26:16;0.20;99.90
40253;DHT22;25972;51.854;4.534;2023-02-27T07:28:43;0.20;99.90
40253;DHT22;25972;51.854;4.534;2023-02-27T07:31:08;0.30;99.90
40253;DHT22;25972;51.854;4.534;2023-02-27T07:33:34;0.50;99.90
40253;DHT22;25972;51.854;4.534;2023-02-27T07:36:00;0.60;99.90
40253;DHT22;25972;51.854;4.534;2023-02-27T07:38:26;0.80;99.90
40253;DHT22;25972;51.854;4.534;2023-02-27T07:40:54;1.00;99.90
40253;DHT22;25972;51.854;4.534;2023-02-27T07:43:20;1.10;99.90
40253;DHT22;25972;51.854;4.534;2023-02-27T07:45:46;1.40;99.90
40253;DHT22;25972;51.854;4.534;2023-02-27T07:48:12;1.60;99.90
40253;DHT22;25972;51.854;4.534;2023-02-27T07:50:38;1.80;99.90
40253;DHT22;25972;51.854;4.534;2023-02-27T07:53:03;2.00;99.90
40253;DHT22;25972;51.854;4.534;2023-02-27T07:55:32;2.30;99.90
40253;DHT22;25972;51.854;4.534;2023-02-27T07:57:58;2.50;99.90
40253;DHT22;25972;51.854;4.534;2023-02-27T08:00:24;2.70;99.90
40253;DHT22;25972;51.854;4.534;2023-02-27T08:02:50;2.90;99.90
40253;DHT22;25972;51.854;4.534;2023-02-27T08:05:16;3.10;99.90
40253;DHT22;25972;51.854;4.534;2023-02-27T08:07:41;3.30;99.90
40253;DHT22;25972;51.854;4.534;2023-02-27T08:10:09;3.50;99.90
40253;DHT22;25972;51.854;4.534;2023-02-27T08:12:35;3.70;99.90
40253;DHT22;25972;51.854;4.534;2023-02-27T08:15:01;3.80;99.90
40253;DHT22;25972;51.854;4.534;2023-02-27T08:17:26;3.90;99.90
40253;DHT22;25972;51.854;4.534;2023-02-27T08:19:53;4.10;99.90
40253;DHT22;25972;51.854;4.534;2023-02-27T08:22:19;4.10;99.90
40253;DHT22;25972;51.854;4.534;2023-02-27T08:24:45;4.20;99.90
40253;DHT22;25972;51.854;4.534;2023-02-27T08:27:11;4.30;99.90
40253;DHT22;25972;51.854;4.534;2023-02-27T08:29:36;4.50;99.90
40253;DHT22;25972;51.854;4.534;2023-02-27T08:32:03;4.60;99.90
40253;DHT22;25972;51.854;4.534;2023-02-27T08:34:29;4.60;99.90
40253;DHT22;25972;51.854;4.534;2023-02-27T08:36:55;4.80;99.90
40253;DHT22;25972;51.854;4.534;2023-02-27T08:39:22;4.90;99.90
40253;DHT22;25972;51.854;4.534;2023-02-27T08:41:50;5.10;99.90
40253;DHT22;25972;51.854;4.534;2023-02-27T08:44:19;5.00;99.90
40253;DHT22;25972;51.854;4.534;2023-02-27T08:46:45;5.00;99.90
40253;DHT22;25972;51.854;4.534;2023-02-27T08:49:11;5.20;99.90
40253;DHT22;25972;51.854;4.534;2023-02-27T08:51:38;5.40;99.90
40253;DHT22;25972;51.854;4.534;2023-02-27T08:54:04;5.60;99.90
40253;DHT22;25972;51.854;4.534;2023-02-27T08:56:30;5.40;99.90
40253;DHT22;25972;51.854;4.534;2023-02-27T08:58:57;5.60;99.90
40253;DHT22;25972;51.854;4.534;2023-02-27T09:01:23;5.80;99.90
40253;DHT22;25972;51.854;4.534;2023-02-27T09:03:52;5.80;99.90
40253;DHT22;25972;51.854;4.534;2023-02-27T09:06:19;5.90;99.90
40253;DHT22;25972;51.854;4.534;2023-02-27T09:08:51;5.90;99.90
40253;DHT22;25972;51.854;4.534;2023-02-27T09:11:16;5.90;99.90
40253;DHT22;25972;51.854;4.534;2023-02-27T09:13:42;5.80;99.90
40253;DHT22;25972;51.854;4.534;2023-02-27T09:16:08;5.90;99.90
40253;DHT22;25972;51.854;4.534;2023-02-27T09:18:34;6.20;99.90
40253;DHT22;25972;51.854;4.534;2023-02-27T09:21:00;6.20;99.90
40253;DHT22;25972;51.854;4.534;2023-02-27T09:23:26;6.30;99.90
40253;DHT22;25972;51.854;4.534;2023-02-27T09:25:52;6.30;99.90
40253;DHT22;25972;51.854;4.534;2023-02-27T09:28:17;6.20;99.90
40253;DHT22;25972;51.854;4.534;2023-02-27T09:30:44;6.30;99.90
40253;DHT22;25972;51.854;4.534;2023-02-27T09:33:10;6.50;99.90
40253;DHT22;25972;51.854;4.534;2023-02-27T09:35:36;6.50;99.90
40253;DHT22;25972;51.854;4.534;2023-02-27T09:38:02;6.40;99.90
40253;DHT22;25972;51.854;4.534;2023-02-27T09:40:31;6.50;99.90
40253;DHT22;25972;51.854;4.534;2023-02-27T09:43:01;6.50;99.90
40253;DHT22;25972;51.854;4.534;2023-02-27T09:45:30;6.50;99.90
40253;DHT22;25972;51.854;4.534;2023-02-27T09:48:02;6.60;99.90
40253;DHT22;25972;51.854;4.534;2023-02-27T09:50:41;6.60;99.90
40253;DHT22;25972;51.854;4.534;2023-02-27T09:53:22;6.50;99.90
40253;DHT22;25972;51.854;4.534;2023-02-27T09:55:53;6.40;99.90
40253;DHT22;25972;51.854;4.534;2023-02-27T09:58:42;6.40;99.90
40253;DHT22;25972;51.854;4.534;2023-02-27T10:01:20;6.50;99.90
40253;DHT22;25972;51.854;4.534;2023-02-27T10:09:49;6.40;99.90
40253;DHT22;25972;51.854;4.534;2023-02-27T10:12:25;6.00;99.90
40253;DHT22;25972;51.854;4.534;2023-02-27T10:14:57;5.90;99.90
40253;DHT22;25972;51.854;4.534;2023-02-27T10:17:30;5.70;99.90
40253;DHT22;25972;51.854;4.534;2023-02-27T10:19:57;5.80;99.90
40253;DHT22;25972;51.854;4.534;2023-02-27T10:22:30;5.80;99.90
40253;DHT22;25972;51.854;4.534;2023-02-27T10:25:19;5.80;99.90
40253;DHT22;25972;51.854;4.534;2023-02-27T10:27:47;6.00;99.90
40253;DHT22;25972;51.854;4.534;2023-02-27T10:30:25;5.80;99.90
40253;DHT22;25972;51.854;4.534;2023-02-27T10:32:56;5.80;99.90
40253;DHT22;25972;51.854;4.534;2023-02-27T10:35:33;5.90;99.90
40253;DHT22;25972;51.854;4.534;2023-02-27T10:38:09;5.90;99.90
40253;DHT22;25972;51.854;4.534;2023-02-27T10:40:39;5.90;99.90
40253;DHT22;25972;51.854;4.534;2023-02-27T10:43:06;5.70;99.90
40253;DHT22;25972;51.854;4.534;2023-02-27T10:45:33;5.70;99.90
40253;DHT22;25972;51.854;4.534;2023-02-27T10:48:01;5.70;99.90
40253;DHT22;25972;51.854;4.534;2023-02-27T10:50:33;5.80;99.90
40253;DHT22;25972;51.854;4.534;2023-02-27T10:53:02;5.80;99.90
40253;DHT22;25972;51.854;4.534;2023-02-27T10:55:31;5.80;99.90
40253;DHT22;25972;51.854;4.534;2023-02-27T10:57:58;5.80;99.90
40253;DHT22;25972;51.854;4.534;2023-02-27T11:00:31;5.70;99.90
40253;DHT22;25972;51.854;4.534;2023-02-27T11:03:00;5.80;99.90
40253;DHT22;25972;51.854;4.534;2023-02-27T11:05:34;5.80;99.90
40253;DHT22;25972;51.854;4.534;2023-02-27T11:08:13;5.80;99.90
40253;DHT22;25972;51.854;4.534;2023-02-27T11:11:06;5.90;99.90
40253;DHT22;25972;51.854;4.534;2023-02-27T11:13:37;6.00;99.90
40253;DHT22;25972;51.854;4.534;2023-02-27T11:16:17;6.10;99.90
40253;DHT22;25972;51.854;4.534;2023-02-27T11:18:47;6.30;99.90
40253;DHT22;25972;51.854;4.534;2023-02-27T11:21:25;6.40;99.90
40253;DHT22;25972;51.854;4.534;2023-02-27T11:23:57;6.40;99.90
40253;DHT22;25972;51.854;4.534;2023-02-27T11:26:28;6.30;99.90
40253;DHT22;25972;51.854;4.534;2023-02-27T11:29:15;6.40;99.90
40253;DHT22;25972;51.854;4.534;2023-02-27T11:31:55;6.50;99.90
40253;DHT22;25972;51.854;4.534;2023-02-27T11:34:34;6.40;99.90
40253;DHT22;25972;51.854;4.534;2023-02-27T11:37:05;6.60;99.90
40253;DHT22;25972;51.854;4.534;2023-02-27T11:39:39;6.90;99.90
40253;DHT22;25972;51.854;4.534;2023-02-27T11:42:17;6.90;99.90
40253;DHT22;25972;51.854;4.534;2023-02-27T11:45:04;6.90;99.90
40253;DHT22;25972;51.854;4.534;2023-02-27T11:47:34;6.80;99.90
40253;DHT22;25972;51.854;4.534;2023-02-27T11:56:40;7.60;99.90
40253;DHT22;25972;51.854;4.534;2023-02-27T12:01:45;7.50;99.90
40253;DHT22;25972;51.854;4.534;2023-02-27T12:04:26;7.30;99.90
40253;DHT22;25972;51.854;4.534;2023-02-27T12:10:23;6.80;99.90
40253;DHT22;25972;51.854;4.534;2023-02-27T12:15:30;6.40;99.90
40253;DHT22;25972;51.854;4.534;2023-02-27T12:18:40;6.30;99.90
40253;DHT22;25972;51.854;4.534;2023-02-27T12:23:45;6.10;99.90
40253;DHT22;25972;51.854;4.534;2023-02-27T12:28:57;6.10;99.90
40253;DHT22;25972;51.854;4.534;2023-02-27T12:36:36;6.40;99.90
40253;DHT22;25972;51.854;4.534;2023-02-27T12:39:02;6.50;99.90
40253;DHT22;25972;51.854;4.534;2023-02-27T12:55:09;7.30;99.90
40253;DHT22;25972;51.854;4.534;2023-02-27T13:00:25;7.10;99.90
40253;DHT22;25972;51.854;4.534;2023-02-27T13:03:00;6.90;99.90
40253;DHT22;25972;51.854;4.534;2023-02-27T13:05:53;6.70;99.90
40253;DHT22;25972;51.854;4.534;2023-02-27T13:11:20;6.40;99.90
40253;DHT22;25972;51.854;4.534;2023-02-27T13:14:26;6.60;99.90
40253;DHT22;25972;51.854;4.534;2023-02-27T13:17:15;6.70;99.90
40253;DHT22;25972;51.854;4.534;2023-02-27T13:25:12;6.90;99.60
40253;DHT22;25972;51.854;4.534;2023-02-27T13:27:52;6.90;99.80
40253;DHT22;25972;51.854;4.534;2023-02-27T13:30:24;7.00;99.60
40253;DHT22;25972;51.854;4.534;2023-02-27T13:33:00;6.90;99.40
40253;DHT22;25972;51.854;4.534;2023-02-27T13:38:03;6.80;99.40
40253;DHT22;25972;51.854;4.534;2023-02-27T13:40:45;6.80;99.60
40253;DHT22;25972;51.854;4.534;2023-02-27T13:43:33;6.80;99.10
40253;DHT22;25972;51.854;4.534;2023-02-27T13:46:02;6.80;99.50
40253;DHT22;25972;51.854;4.534;2023-02-27T13:48:42;6.80;99.60
40253;DHT22;25972;51.854;4.534;2023-02-27T13:56:43;7.00;99.50
40253;DHT22;25972;51.854;4.534;2023-02-27T13:59:29;7.00;99.20
40253;DHT22;25972;51.854;4.534;2023-02-27T14:02:23;7.10;99.40
40253;DHT22;25972;51.854;4.534;2023-02-27T14:04:56;7.10;98.90
40253;DHT22;25972;51.854;4.534;2023-02-27T14:07:32;7.20;99.30
40253;DHT22;25972;51.854;4.534;2023-02-27T14:10:10;7.10;98.80
40253;DHT22;25972;51.854;4.534;2023-02-27T14:12:39;7.10;98.60
40253;DHT22;25972;51.854;4.534;2023-02-27T14:18:02;7.10;99.10
40253;DHT22;25972;51.854;4.534;2023-02-27T14:31:11;7.10;99.40
40253;DHT22;25972;51.854;4.534;2023-02-27T14:33:51;7.10;99.70
40253;DHT22;25972;51.854;4.534;2023-02-27T14:36:22;7.20;99.70
40253;DHT22;25972;51.854;4.534;2023-02-27T14:38:49;7.40;99.40
40253;DHT22;25972;51.854;4.534;2023-02-27T14:43:52;7.60;99.00
40253;DHT22;25972;51.854;4.534;2023-02-27T14:46:37;7.70;99.30
40253;DHT22;25972;51.854;4.534;2023-02-27T14:49:06;7.80;99.40
40253;DHT22;25972;51.854;4.534;2023-02-27T14:51:40;7.80;99.90
40253;DHT22;25972;51.854;4.534;2023-02-27T14:54:15;7.60;99.90
40253;DHT22;25972;51.854;4.534;2023-02-27T14:56:58;7.50;99.90
40253;DHT22;25972;51.854;4.534;2023-02-27T15:02:00;7.20;99.90
40253;DHT22;25972;51.854;4.534;2023-02-27T15:04:30;7.20;99.90
40253;DHT22;25972;51.854;4.534;2023-02-27T15:06:58;7.10;99.90
40253;DHT22;25972;51.854;4.534;2023-02-27T15:09:40;7.10;99.90
40253;DHT22;25972;51.854;4.534;2023-02-27T15:12:17;7.20;99.90
40253;DHT22;25972;51.854;4.534;2023-02-27T15:14:57;7.10;99.90
40253;DHT22;25972;51.854;4.534;2023-02-27T15:17:38;7.10;99.90
40253;DHT22;25972;51.854;4.534;2023-02-27T15:20:30;7.00;99.90
40253;DHT22;25972;51.854;4.534;2023-02-27T15:22:58;7.00;99.90
40253;DHT22;25972;51.854;4.534;2023-02-27T15:25:35;7.10;99.90
40253;DHT22;25972;51.854;4.534;2023-02-27T15:28:26;7.20;99.90
40253;DHT22;25972;51.854;4.534;2023-02-27T15:30:54;7.30;99.90
40253;DHT22;25972;51.854;4.534;2023-02-27T15:33:25;7.40;99.90
40253;DHT22;25972;51.854;4.534;2023-02-27T15:35:52;7.30;99.90
40253;DHT22;25972;51.854;4.534;2023-02-27T15:40:53;7.30;99.90
40253;DHT22;25972;51.854;4.534;2023-02-27T15:43:21;7.20;99.90
40253;DHT22;25972;51.854;4.534;2023-02-27T15:45:47;7.10;99.90
40253;DHT22;25972;51.854;4.534;2023-02-27T15:48:15;7.00;99.90
40253;DHT22;25972;51.854;4.534;2023-02-27T15:50:46;7.10;99.90
40253;DHT22;25972;51.854;4.534;2023-02-27T15:53:17;7.00;99.90
40253;DHT22;25972;51.854;4.534;2023-02-27T15:55:55;7.00;99.90
40253;DHT22;25972;51.854;4.534;2023-02-27T16:01:19;6.90;99.90
40253;DHT22;25972;51.854;4.534;2023-02-27T16:03:51;6.90;99.90
40253;DHT22;25972;51.854;4.534;2023-02-27T16:06:27;6.80;99.90
40253;DHT22;25972;51.854;4.534;2023-02-27T16:08:56;6.70;99.90
40253;DHT22;25972;51.854;4.534;2023-02-27T16:11:25;6.60;99.90
40253;DHT22;25972;51.854;4.534;2023-02-27T16:13:52;6.60;99.90
40253;DHT22;25972;51.854;4.534;2023-02-27T16:21:16;6.60;99.90
40253;DHT22;25972;51.854;4.534;2023-02-27T16:23:44;6.70;99.90
40253;DHT22;25972;51.854;4.534;2023-02-27T16:26:17;6.60;99.90
40253;DHT22;25972;51.854;4.534;2023-02-27T16:29:02;6.70;99.90
40253;DHT22;25972;51.854;4.534;2023-02-27T16:31:37;6.60;99.90
40253;DHT22;25972;51.854;4.534;2023-02-27T16:36:41;6.50;99.90
40253;DHT22;25972;51.854;4.534;2023-02-27T16:39:12;6.40;99.90
40253;DHT22;25972;51.854;4.534;2023-02-27T16:41:37;6.40;99.90
40253;DHT22;25972;51.854;4.534;2023-02-27T16:44:04;6.40;99.90
40253;DHT22;25972;51.854;4.534;2023-02-27T16:46:30;6.30;99.90
40253;DHT22;25972;51.854;4.534;2023-02-27T16:48:56;6.20;99.90
40253;DHT22;25972;51.854;4.534;2023-02-27T16:51:29;6.20;99.90
40253;DHT22;25972;51.854;4.534;2023-02-27T16:53:55;6.10;99.90
40253;DHT22;25972;51.854;4.534;2023-02-27T16:56:24;6.00;99.90
40253;DHT22;25972;51.854;4.534;2023-02-27T16:58:50;6.00;99.90
40253;DHT22;25972;51.854;4.534;2023-02-27T17:01:16;6.00;99.90
40253;DHT22;25972;51.854;4.534;2023-02-27T17:03:44;5.90;99.90
40253;DHT22;25972;51.854;4.534;2023-02-27T17:06:11;5.80;99.90
40253;DHT22;25972;51.854;4.534;2023-02-27T17:08:41;5.80;99.90
40253;DHT22;25972;51.854;4.534;2023-02-27T17:11:09;5.80;99.90
40253;DHT22;25972;51.854;4.534;2023-02-27T17:13:35;5.80;99.90
40253;DHT22;25972;51.854;4.534;2023-02-27T17:16:03;5.70;99.90
40253;DHT22;25972;51.854;4.534;2023-02-27T17:18:29;5.70;99.90
40253;DHT22;25972;51.854;4.534;2023-02-27T17:20:59;5.60;99.90
40253;DHT22;25972;51.854;4.534;2023-02-27T17:23:25;5.60;99.90
40253;DHT22;25972;51.854;4.534;2023-02-27T17:25:52;5.50;99.90
40253;DHT22;25972;51.854;4.534;2023-02-27T17:28:19;5.50;99.90
40253;DHT22;25972;51.854;4.534;2023-02-27T17:30:45;5.40;99.90
40253;DHT22;25972;51.854;4.534;2023-02-27T17:33:11;5.40;99.90
40253;DHT22;25972;51.854;4.534;2023-02-27T17:35:37;5.30;99.90
40253;DHT22;25972;51.854;4.534;2023-02-27T17:38:03;5.30;99.90
40253;DHT22;25972;51.854;4.534;2023-02-27T17:40:29;5.30;99.90
40253;DHT22;25972;51.854;4.534;2023-02-27T17:42:56;5.30;99.90
40253;DHT22;25972;51.854;4.534;2023-02-27T17:45:21;5.20;99.90
40253;DHT22;25972;51.854;4.534;2023-02-27T17:47:49;5.20;99.90
40253;DHT22;25972;51.854;4.534;2023-02-27T17:50:16;5.20;99.90
40253;DHT22;25972;51.854;4.534;2023-02-27T17:52:42;5.20;99.90
40253;DHT22;25972;51.854;4.534;2023-02-27T17:55:08;5.10;99.90
40253;DHT22;25972;51.854;4.534;2023-02-27T17:57:35;5.10;99.90
40253;DHT22;25972;51.854;4.534;2023-02-27T18:00:12;5.00;99.90
40253;DHT22;25972;51.854;4.534;2023-02-27T18:02:58;4.90;99.90
40253;DHT22;25972;51.854;4.534;2023-02-27T18:05:24;4.90;99.90
40253;DHT22;25972;51.854;4.534;2023-02-27T18:07:50;4.90;99.90
40253;DHT22;25972;51.854;4.534;2023-02-27T18:10:19;4.80;99.90
40253;DHT22;25972;51.854;4.534;2023-02-27T18:12:45;4.80;99.90
40253;DHT22;25972;51.854;4.534;2023-02-27T18:15:11;4.80;99.90
40253;DHT22;25972;51.854;4.534;2023-02-27T18:17:38;4.80;99.90
40253;DHT22;25972;51.854;4.534;2023-02-27T18:20:05;4.70;99.90
40253;DHT22;25972;51.854;4.534;2023-02-27T18:22:31;4.70;99.90
40253;DHT22;25972;51.854;4.534;2023-02-27T18:24:57;4.60;99.90
40253;DHT22;25972;51.854;4.534;2023-02-27T18:27:24;4.60;99.90
40253;DHT22;25972;51.854;4.534;2023-02-27T18:29:51;4.50;99.90
40253;DHT22;25972;51.854;4.534;2023-02-27T18:32:16;4.60;99.90
40253;DHT22;25972;51.854;4.534;2023-02-27T18:34:43;4.50;99.90
40253;DHT22;25972;51.854;4.534;2023-02-27T18:37:10;4.50;99.90
40253;DHT22;25972;51.854;4.534;2023-02-27T18:39:36;4.40;99.90
40253;DHT22;25972;51.854;4.534;2023-02-27T18:42:02;4.30;99.90
40253;DHT22;25972;51.854;4.534;2023-02-27T18:44:28;4.30;99.90
40253;DHT22;25972;51.854;4.534;2023-02-27T18:46:54;4.20;99.90
40253;DHT22;25972;51.854;4.534;2023-02-27T18:49:20;4.20;99.90
40253;DHT22;25972;51.854;4.534;2023-02-27T18:51:46;4.10;99.90
40253;DHT22;25972;51.854;4.534;2023-02-27T18:54:13;4.10;99.90
40253;DHT22;25972;51.854;4.534;2023-02-27T18:56:40;4.10;99.90
40253;DHT22;25972;51.854;4.534;2023-02-27T18:59:06;4.00;99.90
40253;DHT22;25972;51.854;4.534;2023-02-27T19:01:35;3.90;99.90